AirNav   Air Wisconsin pilot careers
 
 1305 users online  

CL86 Santa Clara Towers Heliport
Santa Clara, California, USA

GOING TO SANTA CLARA?


FAA INFORMATION EFFECTIVE 24 MAY 2018

Location

FAA Identifier: CL86
Lat/Long: 37-23-07.7860N / 121-58-20.8520W
37-23.129767N / 121-58.347533W
37.3854961 / -121.9724589
(estimated)
Elevation: 201 ft. / 61 m (estimated)
Variation: 16E (1985)
Time zone: UTC -7 (UTC -8 during Standard Time)
Zip code: 95054

Heliport Operations

Heliport use: Private use. Permission required prior to landing
Activation date: 02/1987
Control tower: no
ARTCC: OAKLAND CENTER
FSS: OAKLAND FLIGHT SERVICE STATION
Attendance: MON-FRI 0600-2200
Wind indicator: yes
Segmented circle: no
Lights: PERIMETER LGTS ACTVTD BY RADIO FREQ.123.075.

Heliport Communications

WX ASOS at SJC (2.5 nm SE): PHONE 408-969-0838
WX ASOS at NUQ (4 nm NW): 124.175 or 283.0 (650-604-1529)
WX AWOS-3P at SQL (15 nm NW): 125.9 (650-593-0613)
WX ASOS at HWD (18 nm NW): PHONE 510-786-3052
WX ASOS at LVK (20 nm N): PHONE 925-606-5412

Nearby radio navigation aids

VOR radial/distance  VOR name  Freq  Var
SJCr280/1.5SAN JOSE VOR/DME114.1016E
OSIr075/14.7WOODSIDE VOR/DME113.9017E
OAKr133/23.7OAKLAND VOR/DME116.8017E
SFOr109/23.7SAN FRANCISCO VOR/DME115.8017E
SAUr120/38.5SAUSALITO VOR/DME116.2017E
CCRr158/39.7CONCORD VOR/DME117.0017E

 
NDB name  Hdg/Dist  Freq  Var  ID
TRACY219/31.120315ETCY - -.-. -.--

Heliport Services

Runway Information

Helipad H1

Dimensions: 40 x 40 ft. / 12 x 12 m
Surface: concrete
ROOFTOP.
Runway edge lights: PERIMETER LIGHTS.
Traffic pattern: leftleft

Heliport Ownership and Management from official FAA records

Ownership: Privately-owned
Owner: SANTA CLARA TOWERS LLC
3945 FREEDOM CIRCLE
SANTA CLARA, CA 95054
Phone 408-727-2007
Manager: SANTA CLARA TOWERS LLC
3945 FREEDOM CIRCLE STE.270
SANTA CLARA, CA 95054
Phone 408-727-2007

Instrument Procedures

There are no published instrument procedures at CL86.

Some nearby airports with instrument procedures:

KSJC - Norman Y Mineta San Jose International Airport (2 nm SE)
KNUQ - Moffett Federal Airfield (4 nm NW)
KRHV - Reid-Hillview Airport of Santa Clara County (8 nm SE)
KPAO - Palo Alto Airport (8 nm NW)
KSQL - San Carlos Airport (15 nm NW)
KHWD - Hayward Executive Airport (18 nm NW)
KLVK - Livermore Municipal Airport (20 nm N)
 
Loc | Ops | Rwys | IFR | FBO | Links
Com | Nav | Svcs | Stats | Notes

AirNav Hotels Sweepstakes
 
Area around CL86 (Santa Clara Towers Heliport)
 
Road maps at: MapQuest Bing Google
 
Aerial photo
No photo
 
Sectional chart

 
Airport distance calculator
Flying to Santa Clara Towers Heliport? Find the distance to fly.

From to CL86

Sunrise and sunset
Times for 20-Jun-2018
 Local
(UTC-7)
 Zulu
(UTC)
Morning civil twilight05:1712:17
Sunrise05:4812:48
Sunset20:3103:31
Evening civil twilight21:0204:02

Current date and time
Zulu (UTC)  20-Jun-2018 21:48:36
Local (UTC-7)  20-Jun-2018 14:48:36
 
METAR
KSJC 
3nm SE 
202053Z 29009KT 10SM CLR 22/13 A3002 RMK AO2 SLP163 T02220128 56007
KNUQ 
3nm NW 
202056Z 34013KT 10SM CLR 19/12 A3003 RMK AO2 SLP172 T01890122 56007
KPAO 
8nm NW 
201947Z 32011KT 10SM FEW016 19/12 A3004
KRHV 
9nm SE 
202050Z 32010KT 10SM SKC 24/11 A2999
KSQL 
15nm NW 
202058Z 01012KT 10SM FEW015 22/12 A3001
KHWD 
18nm N 
202054Z 28011KT 10SM CLR 18/11 A3003 RMK AO2 SLP178 T01780111 57006
TAF
KSJC 
3nm SE 
201741Z 2018/2118 33007KT P6SM FEW015 FM201900 31012KT P6SM SKC FM210400 31005KT P6SM FEW015 FM211000 32003KT P6SM BKN010 FM211600 30005KT P6SM FEW015
NOTAMs
Click for the latest NOTAMs
NOTAMs are issued by the DoD/FAA and will open in a separate window not controlled by AirNav.

 

 
 

Would you like to see your business listed on this page?

 If your business provides an interesting product or service to pilots, flight crews, aircraft, or users of the Santa Clara Towers Heliport, you should consider listing it here.  To start the listing process, click on the button below
 
Add a business
 

Other Pages about Santa Clara Towers Heliport

Update a link
 
Copyright © AirNav, LLC. All rights reserved. Privacy Policy  Contact